Time;durP1;ratioP1;P1;durP2;ratioP2;P2;SDS_P1;SDS_P2;PMS_P1;PMS_P2;Temp;Humidity;BMP_temperature;BMP_pressure;BME280_temperature;BME280_humidity;BME280_pressure;Samples;Min_cycle;Max_cycle;Signal;HPM_P1;HPM_P2
2023/07/03 00:02:39;;;;;;;13.50;3.60;;;;;;;16.51;38.52;99933.28;20786181;28;20602;-79
2023/07/03 00:12:42;;;;;;;13.70;2.67;;;;;;;16.67;37.92;99938.00;20786889;28;20224;-86
2023/07/03 00:22:47;;;;;;;11.00;2.40;;;;;;;16.95;37.70;99935.66;20805334;28;20647;-81
2023/07/03 00:32:50;;;;;;;7.97;3.05;;;;;;;16.33;38.50;99934.16;20778324;28;20224;-79
2023/07/03 00:42:52;;;;;;;13.90;2.90;;;;;;;16.42;38.84;99932.69;20791945;28;20245;-88
2023/07/03 00:53:01;;;;;;;9.65;2.85;;;;;;;16.70;38.23;99931.56;20767047;28;20247;-86
2023/07/03 01:03:11;;;;;;;8.13;2.47;;;;;;;15.91;40.35;99940.66;20791457;28;20201;-80
2023/07/03 01:13:15;;;;;;;11.13;3.20;;;;;;;15.76;40.76;99939.53;20770960;28;20263;-85
2023/07/03 01:23:28;;;;;;;10.30;3.10;;;;;;;15.87;40.79;99927.56;20787998;28;20193;-79
2023/07/03 01:33:31;;;;;;;11.70;2.73;;;;;;;15.33;41.38;99919.94;20750611;28;20223;-81
2023/07/03 01:43:34;;;;;;;10.60;2.80;;;;;;;15.44;42.27;99927.50;20778055;28;20482;-81
2023/07/03 01:54:04;;;;;;;17.57;3.43;;;;;;;15.07;42.45;99924.19;20779689;28;20710;-82
2023/07/03 02:04:23;;;;;;;8.60;3.20;;;;;;;15.03;42.56;99914.00;20814303;28;20485;-80
2023/07/03 02:14:25;;;;;;;11.93;3.10;;;;;;;15.58;42.17;99912.78;20774698;28;20273;-82
2023/07/03 02:24:30;;;;;;;12.20;3.37;;;;;;;14.94;43.33;99925.47;20769926;28;20502;-85
2023/07/03 02:34:34;;;;;;;17.37;3.00;;;;;;;14.76;44.20;99912.91;20816509;28;20270;-85
2023/07/03 02:44:36;;;;;;;10.33;2.73;;;;;;;15.27;43.90;99915.75;20773900;28;20219;-79
2023/07/03 02:54:39;;;;;;;11.77;3.53;;;;;;;15.17;43.56;99910.66;20800481;28;20220;-86
2023/07/03 03:04:45;;;;;;;11.55;3.33;;;;;;;15.02;44.04;99899.00;20773726;28;20660;-80
2023/07/03 03:14:48;;;;;;;16.23;4.07;;;;;;;14.98;44.75;99900.88;20809655;28;20282;-87
2023/07/03 03:24:51;;;;;;;14.80;3.40;;;;;;;14.64;45.41;99893.19;20783653;28;20274;-81
2023/07/03 03:34:54;;;;;;;14.10;3.27;;;;;;;15.49;43.91;99895.16;20826659;28;20220;-85
2023/07/03 03:44:57;;;;;;;13.45;3.10;;;;;;;15.06;44.89;99894.25;20827019;28;20192;-80
2023/07/03 03:54:59;;;;;;;13.53;3.33;;;;;;;14.80;46.11;99902.50;20795845;28;20483;-84
2023/07/03 04:05:02;;;;;;;15.33;2.90;;;;;;;13.68;48.88;99901.94;20807468;28;20489;-79
2023/07/03 04:15:06;;;;;;;11.80;3.13;;;;;;;14.37;48.20;99909.94;20803056;28;20595;-82
2023/07/03 04:25:08;;;;;;;14.98;3.22;;;;;;;14.35;48.61;99915.13;20812533;28;20196;-83
2023/07/03 04:35:13;;;;;;;11.75;3.10;;;;;;;14.40;48.66;99916.88;20779703;28;20216;-87
2023/07/03 04:45:16;;;;;;;16.53;3.80;;;;;;;14.37;49.53;99914.75;20816420;28;20545;-83
2023/07/03 04:55:18;;;;;;;17.00;3.63;;;;;;;14.24;50.76;99905.53;20765289;28;20216;-84
2023/07/03 05:05:22;;;;;;;17.87;4.13;;;;;;;14.95;49.75;99912.13;20812292;28;20197;-85
2023/07/03 05:15:25;;;;;;;13.27;3.08;;;;;;;14.99;49.73;99899.72;20778670;28;20224;-78
2023/07/03 05:25:27;;;;;;;15.00;3.80;;;;;;;14.81;51.31;99914.66;20779545;28;20192;-78
2023/07/03 05:35:30;;;;;;;14.13;3.90;;;;;;;14.95;50.11;99927.13;20765842;28;20220;-78
2023/07/03 05:45:32;;;;;;;12.50;3.30;;;;;;;14.94;50.30;99931.16;20794102;28;20594;-79
2023/07/03 05:55:35;;;;;;;15.97;4.50;;;;;;;15.31;49.66;99928.00;20761770;28;20305;-85
2023/07/03 06:05:37;;;;;;;13.67;4.13;;;;;;;15.47;49.17;99937.25;20762126;28;20262;-85
2023/07/03 06:15:41;;;;;;;16.47;3.03;;;;;;;15.60;49.48;99949.25;20776162;28;20291;-77
2023/07/03 06:25:44;;;;;;;10.80;3.27;;;;;;;15.45;50.11;99968.00;20793189;28;20185;-84
2023/07/03 06:35:49;;;;;;;15.15;3.42;;;;;;;15.89;49.38;99970.59;20747901;28;20255;-79
2023/07/03 06:45:51;;;;;;;15.88;3.70;;;;;;;16.17;48.55;99968.31;20796171;28;20606;-80
2023/07/03 06:56:00;;;;;;;20.20;4.07;;;;;;;15.82;49.16;99974.09;20780966;28;20273;-85
2023/07/03 07:06:17;;;;;;;15.13;3.60;;;;;;;16.45;47.98;99968.88;20780074;28;20196;-84
2023/07/03 07:16:28;;;;;;;17.08;4.15;;;;;;;17.09;46.58;99969.97;20801948;28;20633;-85
2023/07/03 07:26:33;;;;;;;10.75;4.10;;;;;;;16.13;48.28;99981.63;20790983;28;20250;-79
2023/07/03 07:36:38;;;;;;;18.48;4.95;;;;;;;15.72;49.23;99975.47;20784752;28;20285;-85
2023/07/03 07:46:40;;;;;;;17.48;4.30;;;;;;;16.45;47.42;99968.88;20803051;28;20204;-79
2023/07/03 07:56:43;;;;;;;15.20;3.80;;;;;;;17.24;46.00;99978.78;20805761;28;20258;-83
2023/07/03 08:06:45;;;;;;;17.15;4.60;;;;;;;16.95;45.56;99981.13;20842379;28;20269;-78
2023/07/03 08:16:48;;;;;;;12.27;3.67;;;;;;;17.75;41.94;99977.06;20822293;28;20293;-79
2023/07/03 08:26:53;;;;;;;17.52;3.42;;;;;;;18.10;41.32;99973.03;20789562;28;20236;-84
2023/07/03 08:36:55;;;;;;;19.42;3.92;;;;;;;17.29;43.65;99987.78;20850656;28;20236;-79
2023/07/03 08:47:03;;;;;;;11.80;3.40;;;;;;;17.44;43.36;99988.81;20795984;28;20197;-79
2023/07/03 08:57:14;;;;;;;14.32;3.85;;;;;;;16.11;45.17;100001.03;20812874;28;20604;-85
2023/07/03 09:07:30;;;;;;;13.85;3.63;;;;;;;16.23;47.70;100019.97;20787926;28;20208;-84
2023/07/03 09:17:33;;;;;;;12.38;4.13;;;;;;;17.78;43.28;100010.47;20796431;28;20216;-85
2023/07/03 09:27:36;;;;;;;12.77;3.65;;;;;;;17.25;41.85;100014.53;20785308;28;20200;-84
2023/07/03 09:37:41;;;;;;;16.15;3.33;;;;;;;17.66;40.91;100024.09;20811020;28;20228;-84
2023/07/03 09:47:55;;;;;;;6.80;2.53;;;;;;;17.68;38.51;100011.09;20820838;28;20250;-85
2023/07/03 09:57:58;;;;;;;13.60;3.10;;;;;;;17.57;38.83;100015.81;20809108;28;20262;-84
2023/07/03 10:08:03;;;;;;;8.45;2.40;;;;;;;17.04;38.35;100021.47;20798972;28;20255;-83
2023/07/03 10:18:18;;;;;;;11.85;2.92;;;;;;;18.31;35.07;100024.56;20814700;28;20232;-84
2023/07/03 10:28:27;;;;;;;8.35;2.42;;;;;;;18.26;35.49;100017.19;20801313;28;20258;-86
2023/07/03 10:38:39;;;;;;;9.85;2.20;;;;;;;18.31;33.50;100026.59;20811134;28;20633;-84
2023/07/03 10:48:42;;;;;;;10.77;2.40;;;;;;;19.77;32.29;100012.41;20800993;28;20221;-82
2023/07/03 10:58:54;;;;;;;7.07;2.17;;;;;;;19.53;32.06;100022.47;20778389;28;20220;-80
2023/07/03 11:08:59;;;;;;;6.65;1.92;;;;;;;18.51;32.98;100031.72;20790499;28;20255;-84
2023/07/03 11:19:12;;;;;;;8.23;2.05;;;;;;;19.25;31.97;100020.19;20819841;28;20228;-84
2023/07/03 11:29:19;;;;;;;6.75;2.10;;;;;;;20.06;31.44;100018.31;20784818;28;20204;-79
2023/07/03 11:39:24;;;;;;;9.70;2.45;;;;;;;19.15;33.31;100017.28;20812236;28;20224;-80
2023/07/03 11:49:31;;;;;;;4.45;2.05;;;;;;;20.01;31.47;100014.59;20822085;28;20581;-85
2023/07/03 11:59:36;;;;;;;7.03;2.20;;;;;;;19.14;32.37;100025.00;20791866;28;20271;-84
2023/07/03 12:09:39;;;;;;;8.55;2.75;;;;;;;19.84;32.31;100012.47;20811819;28;20258;-79
2023/07/03 12:19:41;;;;;;;8.02;3.05;;;;;;;20.11;32.96;100029.34;20793743;28;20224;-84
2023/07/03 12:29:46;;;;;;;9.23;2.83;;;;;;;19.55;33.18;100034.31;20803435;28;20259;-84
2023/07/03 12:39:49;;;;;;;7.60;2.55;;;;;;;19.40;34.62;100054.59;20802687;28;20572;-79
2023/07/03 12:49:59;;;;;;;9.30;2.70;;;;;;;17.95;35.97;100068.84;20790974;28;20197;-84
2023/07/03 13:00:06;;;;;;;10.00;2.70;;;;;;;18.80;35.47;100054.84;20816277;28;20232;-83
2023/07/03 13:10:12;;;;;;;8.00;2.63;;;;;;;20.17;33.51;100024.88;20783148;28;20246;-79
2023/07/03 13:20:24;;;;;;;7.35;2.63;;;;;;;21.03;32.68;100010.41;20786583;28;20637;-84
2023/07/03 13:30:31;;;;;;;10.13;3.05;;;;;;;20.96;33.05;100012.44;20808850;28;20266;-83
2023/07/03 13:40:34;;;;;;;10.13;2.70;;;;;;;20.11;33.76;100015.06;20809399;28;20255;-84
2023/07/03 13:50:37;;;;;;;8.73;2.95;;;;;;;20.58;34.18;100022.59;20831006;28;20212;-85
2023/07/03 14:00:40;;;;;;;8.40;2.80;;;;;;;21.00;32.09;99998.97;20781954;28;20212;-83
2023/07/03 14:10:43;;;;;;;8.57;2.72;;;;;;;20.95;30.91;99993.63;20825073;28;20248;-81
2023/07/03 14:20:47;;;;;;;9.70;2.90;;;;;;;20.55;31.40;99984.16;20814352;28;20221;-85
2023/07/03 14:30:52;;;;;;;10.13;2.75;;;;;;;20.13;31.31;99984.06;20770149;28;20250;-83
2023/07/03 14:40:56;;;;;;;8.55;2.30;;;;;;;19.36;31.68;99991.78;20778871;28;20228;-78
2023/07/03 14:50:59;;;;;;;6.47;2.70;;;;;;;20.04;31.19;99976.69;20798251;28;20193;-78
2023/07/03 15:01:02;;;;;;;6.28;2.67;;;;;;;20.95;30.91;99967.88;20780110;28;20270;-78
2023/07/03 15:11:13;;;;;;;10.32;3.22;;;;;;;21.04;30.52;99968.31;20794398;28;20212;-79
2023/07/03 15:21:17;;;;;;;16.50;3.00;;;;;;;20.93;30.62;99971.16;20789587;28;20215;-79
2023/07/03 15:31:20;;;;;;;10.02;3.45;;;;;;;20.65;29.71;99954.78;20798781;28;20201;-78
2023/07/03 15:41:25;;;;;;;6.90;3.20;;;;;;;20.69;29.78;99949.09;20787403;28;20569;-77
2023/07/03 15:51:27;;;;;;;7.90;3.45;;;;;;;21.12;29.26;99955.63;20783264;28;20461;-81
2023/07/03 16:01:30;;;;;;;8.75;4.18;;;;;;;21.13;29.68;99954.41;20790767;28;20212;-81
2023/07/03 16:11:36;;;;;;;9.20;3.65;;;;;;;20.61;30.18;99951.13;20802932;28;20294;-84
2023/07/03 16:21:41;;;;;;;13.48;3.58;;;;;;;20.86;30.26;99953.19;20808849;28;20204;-80
2023/07/03 16:31:43;;;;;;;10.05;4.40;;;;;;;21.20;29.73;99931.50;20812360;28;20277;-79
2023/07/03 16:41:49;;;;;;;9.18;4.28;;;;;;;20.47;30.77;99936.78;20727765;28;20233;-80
2023/07/03 16:51:51;;;;;;;13.23;4.53;;;;;;;21.12;30.29;99929.06;20747210;28;20220;-80
2023/07/03 17:01:56;;;;;;;10.35;4.32;;;;;;;20.99;30.30;99922.94;20708054;28;20202;-79
2023/07/03 17:12:00;;;;;;;10.70;4.10;;;;;;;20.93;31.19;99919.66;20737519;28;20255;-82
2023/07/03 17:22:05;;;;;;;15.35;4.60;;;;;;;21.32;30.60;99913.09;20707117;28;20259;-81
2023/07/03 17:32:10;;;;;;;9.65;4.45;;;;;;;20.21;31.17;99911.44;20694624;28;20276;-81
2023/07/03 17:42:12;;;;;;;13.45;5.05;;;;;;;20.53;30.73;99897.16;20772038;28;20192;-81
2023/07/03 17:52:17;;;;;;;12.88;5.07;;;;;;;19.88;31.83;99893.34;20791475;28;20231;-79
2023/07/03 18:02:19;;;;;;;9.93;5.68;;;;;;;20.64;31.15;99890.28;20816495;28;20513;-79
2023/07/03 18:12:22;;;;;;;11.27;4.82;;;;;;;20.81;31.07;99893.53;20781428;28;20501;-84
2023/07/03 18:22:25;;;;;;;13.85;5.13;;;;;;;20.24;31.10;99888.59;20780639;28;20227;-83
2023/07/03 18:32:37;;;;;;;11.95;4.97;;;;;;;19.59;31.81;99892.44;20756225;28;20228;-82
2023/07/03 18:42:40;;;;;;;9.23;4.90;;;;;;;19.80;31.11;99897.41;20827999;28;20259;-83
2023/07/03 18:52:43;;;;;;;14.48;5.63;;;;;;;19.77;31.67;99905.97;20762300;28;20212;-83
2023/07/03 19:02:48;;;;;;;12.23;4.70;;;;;;;19.39;32.23;99910.28;20792649;28;20626;-83
2023/07/03 19:12:51;;;;;;;12.27;5.75;;;;;;;19.40;32.48;99907.03;20798471;28;20286;-81
2023/07/03 19:22:56;;;;;;;11.80;5.35;;;;;;;20.51;31.63;99896.78;20806860;28;20246;-82
2023/07/03 19:32:59;;;;;;;12.25;5.35;;;;;;;19.78;33.01;99894.13;20788384;28;20513;-82
2023/07/03 19:43:02;;;;;;;8.88;5.20;;;;;;;19.07;33.49;99893.78;20757980;28;20204;-83
2023/07/03 19:53:07;;;;;;;11.13;5.07;;;;;;;19.44;34.02;99899.31;20780644;28;20619;-85
2023/07/03 20:03:13;;;;;;;12.07;5.35;;;;;;;18.81;34.60;99902.53;20759248;28;20258;-84
2023/07/03 20:13:15;;;;;;;10.13;5.05;;;;;;;19.08;34.30;99898.25;20768671;28;20274;-85
